Time;durP1;ratioP1;P1;durP2;ratioP2;P2;SDS_P1;SDS_P2;PMS_P1;PMS_P2;Temp;Humidity;BMP_temperature;BMP_pressure;BME280_temperature;BME280_humidity;BME280_pressure;Samples;Min_cycle;Max_cycle;Signal;HPM_P1;HPM_P2
2023/05/12 00:02:44;;;;;;;0.60;0.60;;;;;;;;;;10331116;28;20435;-46
2023/05/12 00:07:45;;;;;;;1.23;0.73;;;;;;;;;;10329001;28;20586;-48
2023/05/12 00:12:46;;;;;;;2.92;0.70;;;;;;;;;;10327056;28;20437;-46
2023/05/12 00:17:47;;;;;;;1.00;0.80;;;;;;;;;;10331381;28;20026;-47
2023/05/12 00:22:47;;;;;;;1.63;0.70;;;;;;;;;;10320418;28;20029;-46
2023/05/12 00:27:48;;;;;;;1.00;0.70;;;;;;;;;;10331116;28;20042;-46
2023/05/12 00:32:49;;;;;;;0.60;0.60;;;;;;;;;;10331598;28;20090;-46
2023/05/12 00:37:49;;;;;;;0.60;0.60;;;;;;;;;;10321644;28;20026;-47
2023/05/12 00:42:50;;;;;;;1.13;0.65;;;;;;;;;;10330565;28;20022;-45
2023/05/12 00:47:52;;;;;;;0.88;0.63;;;;;;;;;;10329432;28;20035;-45
2023/05/12 00:52:52;;;;;;;0.73;0.52;;;;;;;;;;10313035;28;20022;-46
2023/05/12 00:57:54;;;;;;;0.50;0.50;;;;;;;;;;10330860;28;20026;-47
2023/05/12 01:02:58;;;;;;;0.70;0.70;;;;;;;;;;10327053;28;20034;-47
2023/05/12 01:08:00;;;;;;;0.63;0.63;;;;;;;;;;10328813;28;20042;-45
2023/05/12 01:13:00;;;;;;;1.13;0.60;;;;;;;;;;10328915;28;20022;-45
2023/05/12 01:18:03;;;;;;;0.50;0.50;;;;;;;;;;10329121;28;20413;-46
2023/05/12 01:23:04;;;;;;;0.60;0.60;;;;;;;;;;10329948;28;20038;-46
2023/05/12 01:28:06;;;;;;;1.52;0.60;;;;;;;;;;10326626;28;20045;-48
2023/05/12 01:33:09;;;;;;;1.08;0.98;;;;;;;;;;10329009;28;20152;-46
2023/05/12 01:38:10;;;;;;;0.60;0.60;;;;;;;;;;10319315;28;20038;-45
2023/05/12 01:43:10;;;;;;;0.60;0.60;;;;;;;;;;10341042;28;20030;-47
2023/05/12 01:48:11;;;;;;;0.70;0.70;;;;;;;;;;10353599;28;20528;-47
2023/05/12 01:53:11;;;;;;;0.70;0.70;;;;;;;;;;10358887;28;20018;-46
2023/05/12 01:58:12;;;;;;;0.70;0.60;;;;;;;;;;10364587;28;20034;-46
2023/05/12 02:03:13;;;;;;;0.70;0.70;;;;;;;;;;10352878;28;20359;-46
2023/05/12 02:08:13;;;;;;;0.60;0.60;;;;;;;;;;10337238;28;20542;-50
2023/05/12 02:13:14;;;;;;;0.70;0.70;;;;;;;;;;10365747;28;20025;-45
2023/05/12 02:18:14;;;;;;;0.65;0.60;;;;;;;;;;10340776;28;20031;-47
2023/05/12 02:23:15;;;;;;;0.60;0.60;;;;;;;;;;10362562;28;20028;-48
2023/05/12 02:28:15;;;;;;;1.20;0.70;;;;;;;;;;10364235;28;20087;-49
2023/05/12 02:33:17;;;;;;;0.63;0.63;;;;;;;;;;10362627;28;20057;-45
2023/05/12 02:38:18;;;;;;;0.60;0.60;;;;;;;;;;10341125;28;20037;-47
2023/05/12 02:43:19;;;;;;;1.45;0.70;;;;;;;;;;10346046;28;20485;-44
2023/05/12 02:48:19;;;;;;;1.88;0.70;;;;;;;;;;10363625;28;20061;-48
2023/05/12 02:53:20;;;;;;;12.73;0.90;;;;;;;;;;10355588;28;20026;-52
2023/05/12 02:58:21;;;;;;;0.63;0.63;;;;;;;;;;10343211;28;20029;-54
2023/05/12 03:03:22;;;;;;;1.65;0.60;;;;;;;;;;10347961;28;20031;-51
2023/05/12 03:08:22;;;;;;;0.73;0.60;;;;;;;;;;10341991;28;20402;-63
2023/05/12 03:13:23;;;;;;;0.63;0.63;;;;;;;;;;10362420;28;20460;-66
2023/05/12 03:18:23;;;;;;;0.63;0.63;;;;;;;;;;10347073;28;20046;-67
2023/05/12 03:23:24;;;;;;;2.13;1.17;;;;;;;;;;10362394;28;20030;-66
2023/05/12 03:28:25;;;;;;;0.70;0.70;;;;;;;;;;10357155;28;20039;-67
2023/05/12 03:33:25;;;;;;;0.70;0.70;;;;;;;;;;10353576;28;20367;-66
2023/05/12 03:38:26;;;;;;;0.75;0.60;;;;;;;;;;10330647;28;20031;-66
2023/05/12 03:43:27;;;;;;;1.63;0.82;;;;;;;;;;10343814;28;20035;-62
2023/05/12 03:48:27;;;;;;;0.65;0.60;;;;;;;;;;10362038;28;20057;-66
2023/05/12 03:53:28;;;;;;;0.52;0.52;;;;;;;;;;10347355;28;20038;-63
2023/05/12 03:58:29;;;;;;;1.17;0.60;;;;;;;;;;10343876;28;20026;-67
2023/05/12 04:03:30;;;;;;;0.95;0.70;;;;;;;;;;10341360;28;20025;-67
2023/05/12 04:08:30;;;;;;;0.85;0.70;;;;;;;;;;10347466;28;20026;-66
2023/05/12 04:13:31;;;;;;;0.85;0.75;;;;;;;;;;10361192;28;20517;-66
2023/05/12 04:18:34;;;;;;;0.98;0.88;;;;;;;;;;10348460;28;20026;-66
2023/05/12 04:23:35;;;;;;;1.38;0.90;;;;;;;;;;10364738;28;20386;-68
2023/05/12 04:28:36;;;;;;;0.75;0.75;;;;;;;;;;10369135;28;20034;-67
2023/05/12 04:33:36;;;;;;;0.80;0.80;;;;;;;;;;10349816;28;20417;-64
2023/05/12 04:38:37;;;;;;;1.20;0.65;;;;;;;;;;10353437;28;20057;-65
2023/05/12 04:43:37;;;;;;;0.90;0.90;;;;;;;;;;10355747;28;20414;-62
2023/05/12 04:48:40;;;;;;;0.73;0.73;;;;;;;;;;10338976;28;20469;-62
2023/05/12 04:53:41;;;;;;;1.23;0.90;;;;;;;;;;10334141;28;20252;-63
2023/05/12 04:58:42;;;;;;;0.73;0.73;;;;;;;;;;10330798;28;20390;-67
2023/05/12 05:03:42;;;;;;;1.35;0.73;;;;;;;;;;10331660;28;20386;-65
2023/05/12 05:08:43;;;;;;;2.60;0.88;;;;;;;;;;10333391;28;20089;-59
2023/05/12 05:13:44;;;;;;;0.75;0.75;;;;;;;;;;10330920;28;20026;-63
2023/05/12 05:18:45;;;;;;;1.92;0.80;;;;;;;;;;10332676;28;20022;-66
2023/05/12 05:23:45;;;;;;;0.70;0.70;;;;;;;;;;10326445;28;20049;-60
2023/05/12 05:28:46;;;;;;;0.60;0.60;;;;;;;;;;10330193;28;20038;-61
2023/05/12 05:33:47;;;;;;;4.65;0.70;;;;;;;;;;10331942;28;20034;-69
2023/05/12 05:38:48;;;;;;;1.75;0.90;;;;;;;;;;10333004;28;20030;-66
2023/05/12 05:43:48;;;;;;;14.80;1.20;;;;;;;;;;10334662;28;20022;-68
2023/05/12 05:48:49;;;;;;;15.38;1.20;;;;;;;;;;10335085;28;20041;-68
2023/05/12 05:53:49;;;;;;;4.47;1.02;;;;;;;;;;10340456;28;20084;-72
2023/05/12 05:58:50;;;;;;;8.40;1.42;;;;;;;;;;10329516;28;20034;-59
2023/05/12 06:03:51;;;;;;;9.10;1.00;;;;;;;;;;10341412;28;20033;-69
2023/05/12 06:08:54;;;;;;;2.65;1.10;;;;;;;;;;10341925;28;20023;-63
2023/05/12 06:13:55;;;;;;;5.32;1.25;;;;;;;;;;10357648;28;20026;-73
2023/05/12 06:18:55;;;;;;;4.80;0.98;;;;;;;;;;10364613;28;20393;-73
2023/05/12 06:23:56;;;;;;;2.33;0.77;;;;;;;;;;10363641;28;20026;-65
2023/05/12 06:28:57;;;;;;;5.43;0.82;;;;;;;;;;10364362;28;20026;-73
2023/05/12 06:33:57;;;;;;;4.55;1.10;;;;;;;;;;10363260;28;20033;-73
2023/05/12 06:38:58;;;;;;;7.68;0.98;;;;;;;;;;10351334;28;20033;-66
2023/05/12 06:44:00;;;;;;;5.22;0.82;;;;;;;;;;10363960;28;20030;-73
2023/05/12 06:49:01;;;;;;;3.53;1.10;;;;;;;;;;10362738;28;20133;-72
2023/05/12 06:54:01;;;;;;;1.33;0.80;;;;;;;;;;10350926;28;20052;-72
2023/05/12 06:59:03;;;;;;;2.45;0.80;;;;;;;;;;10363628;28;20026;-72
2023/05/12 07:04:04;;;;;;;2.30;0.88;;;;;;;;;;10354121;28;20066;-73
2023/05/12 07:09:04;;;;;;;1.95;0.85;;;;;;;;;;10340992;28;20034;-72
2023/05/12 07:14:05;;;;;;;6.53;0.95;;;;;;;;;;10360271;28;20026;-69
2023/05/12 07:19:07;;;;;;;7.18;1.13;;;;;;;;;;10363111;28;20034;-72
2023/05/12 07:24:08;;;;;;;3.05;0.90;;;;;;;;;;10362569;28;20405;-58
2023/05/12 07:29:09;;;;;;;2.53;0.77;;;;;;;;;;10363323;28;20484;-62
2023/05/12 07:34:10;;;;;;;5.88;0.98;;;;;;;;;;10363044;28;20171;-68
2023/05/12 07:39:13;;;;;;;3.67;0.90;;;;;;;;;;10362783;28;20265;-68
2023/05/12 07:44:15;;;;;;;3.65;1.05;;;;;;;;;;10345622;28;20069;-66
2023/05/12 07:49:15;;;;;;;5.10;1.15;;;;;;;;;;10354413;28;20062;-70
2023/05/12 07:54:16;;;;;;;0.88;0.73;;;;;;;;;;10359149;28;20121;-69
2023/05/12 07:59:16;;;;;;;3.85;0.70;;;;;;;;;;10368012;28;20030;-60
2023/05/12 08:04:17;;;;;;;5.90;0.82;;;;;;;;;;10346875;28;20041;-57
2023/05/12 08:09:17;;;;;;;4.00;1.42;;;;;;;;;;10358676;28;20137;-72
2023/05/12 08:14:18;;;;;;;3.30;1.00;;;;;;;;;;10357606;28;20025;-61
2023/05/12 08:19:19;;;;;;;3.20;1.35;;;;;;;;;;10360046;28;20081;-71
2023/05/12 08:24:20;;;;;;;5.25;0.95;;;;;;;;;;10366474;28;20045;-70
2023/05/12 08:29:21;;;;;;;0.88;0.80;;;;;;;;;;10370036;28;20070;-68
2023/05/12 08:34:22;;;;;;;1.15;0.95;;;;;;;;;;10369562;28;20049;-69
2023/05/12 08:39:23;;;;;;;1.85;0.70;;;;;;;;;;10352661;28;20081;-73
2023/05/12 08:44:24;;;;;;;1.23;0.93;;;;;;;;;;10333273;28;20523;-60
2023/05/12 08:49:28;;;;;;;2.65;0.80;;;;;;;;;;10349781;28;20046;-73
2023/05/12 08:54:29;;;;;;;2.75;0.95;;;;;;;;;;10346762;28;20113;-71
2023/05/12 08:59:30;;;;;;;1.50;0.80;;;;;;;;;;10368669;28;20026;-67
2023/05/12 09:04:31;;;;;;;2.83;0.90;;;;;;;;;;10368432;28;20030;-71
2023/05/12 09:09:33;;;;;;;1.20;0.73;;;;;;;;;;10354510;28;20029;-66
2023/05/12 09:14:36;;;;;;;2.03;0.93;;;;;;;;;;10350836;28;20049;-70
2023/05/12 09:19:37;;;;;;;1.25;0.80;;;;;;;;;;10355736;28;20270;-72
2023/05/12 09:24:39;;;;;;;1.13;0.80;;;;;;;;;;10355101;28;20232;-73
2023/05/12 09:29:49;;;;;;;2.42;0.95;;;;;;;;;;10354680;28;20037;-73
2023/05/12 09:34:50;;;;;;;1.45;0.70;;;;;;;;;;10367335;28;20552;-68
2023/05/12 09:40:02;;;;;;;1.67;0.75;;;;;;;;;;10341328;28;20057;-72
2023/05/12 09:45:10;;;;;;;1.98;0.70;;;;;;;;;;10353052;28;20064;-72
2023/05/12 09:50:11;;;;;;;0.60;0.60;;;;;;;;;;10341581;28;20054;-73
2023/05/12 09:55:12;;;;;;;2.00;1.00;;;;;;;;;;10361752;28;20061;-71
2023/05/12 10:00:16;;;;;;;1.38;0.75;;;;;;;;;;10359498;28;20306;-69
2023/05/12 10:05:20;;;;;;;0.57;0.57;;;;;;;;;;10355155;28;20113;-69
2023/05/12 10:10:24;;;;;;;2.72;0.90;;;;;;;;;;10346592;28;20041;-69
2023/05/12 10:15:26;;;;;;;2.85;0.80;;;;;;;;;;10349365;28;20018;-67
2023/05/12 10:20:27;;;;;;;0.90;0.80;;;;;;;;;;10364498;28;20049;-69
2023/05/12 10:25:28;;;;;;;0.88;0.63;;;;;;;;;;10334285;28;20110;-64
2023/05/12 10:30:29;;;;;;;2.83;0.85;;;;;;;;;;10364467;28;20128;-67
2023/05/12 10:35:38;;;;;;;1.88;0.77;;;;;;;;;;10347250;28;20242;-73
2023/05/12 10:40:59;;;;;;;2.17;0.98;;;;;;;;;;10362631;28;20049;-69
2023/05/12 10:46:21;;;;;;;3.88;1.05;;;;;;;;;;10340035;28;20046;-68
2023/05/12 10:51:27;;;;;;;2.33;0.75;;;;;;;;;;10356376;28;20026;-70
2023/05/12 10:56:39;;;;;;;3.28;1.00;;;;;;;;;;10360449;28;20482;-66
2023/05/12 11:01:40;;;;;;;0.93;0.80;;;;;;;;;;10355785;28;20573;-72
2023/05/12 11:06:43;;;;;;;1.75;0.80;;;;;;;;;;10351857;28;20026;-69
2023/05/12 11:11:43;;;;;;;0.98;0.68;;;;;;;;;;10351402;28;20030;-70
2023/05/12 11:16:44;;;;;;;2.90;1.05;;;;;;;;;;10351346;28;20394;-70
2023/05/12 11:21:45;;;;;;;2.20;0.90;;;;;;;;;;10363182;28;20031;-68
2023/05/12 11:26:50;;;;;;;1.67;0.73;;;;;;;;;;10349943;28;20073;-72
2023/05/12 11:31:51;;;;;;;1.98;0.90;;;;;;;;;;10364398;28;20026;-65
2023/05/12 11:36:55;;;;;;;0.80;0.80;;;;;;;;;;10365398;28;20037;-66
2023/05/12 11:42:08;;;;;;;1.10;0.80;;;;;;;;;;10375706;28;20034;-72
2023/05/12 11:47:13;;;;;;;1.73;0.82;;;;;;;;;;10365463;28;20064;-66
2023/05/12 11:52:15;;;;;;;0.93;0.90;;;;;;;;;;10371521;28;20601;-72
2023/05/12 11:57:26;;;;;;;1.30;0.88;;;;;;;;;;10355840;28;20381;-71
2023/05/12 12:02:31;;;;;;;1.75;0.95;;;;;;;;;;10376296;28;20466;-73
2023/05/12 12:07:34;;;;;;;1.73;0.95;;;;;;;;;;10344651;28;20029;-72
2023/05/12 12:12:34;;;;;;;1.08;0.85;;;;;;;;;;10362627;28;20085;-73
2023/05/12 12:17:35;;;;;;;2.20;1.08;;;;;;;;;;10361328;28;20459;-71
2023/05/12 12:22:36;;;;;;;1.58;0.93;;;;;;;;;;10339255;28;20026;-72
2023/05/12 12:27:37;;;;;;;2.08;0.90;;;;;;;;;;10350621;28;20042;-69
2023/05/12 12:32:37;;;;;;;2.70;1.00;;;;;;;;;;10343024;28;20029;-69
2023/05/12 12:37:39;;;;;;;2.05;1.00;;;;;;;;;;10346819;28;20100;-65
2023/05/12 12:42:40;;;;;;;3.13;1.60;;;;;;;;;;10339137;28;20026;-70
2023/05/12 12:47:40;;;;;;;2.60;1.20;;;;;;;;;;10342974;28;20050;-66
2023/05/12 12:52:41;;;;;;;2.00;1.00;;;;;;;;;;10333845;28;20269;-67
2023/05/12 12:57:41;;;;;;;4.97;1.05;;;;;;;;;;10343869;28;20026;-73
2023/05/12 13:02:42;;;;;;;1.73;1.00;;;;;;;;;;10349157;28;20036;-73
2023/05/12 13:07:43;;;;;;;2.88;1.58;;;;;;;;;;10329855;28;20030;-71
2023/05/12 13:12:43;;;;;;;1.60;1.00;;;;;;;;;;10342889;28;20117;-56
2023/05/12 13:17:47;;;;;;;2.20;1.05;;;;;;;;;;10329468;28;20065;-65
2023/05/12 13:22:47;;;;;;;7.22;1.20;;;;;;;;;;10340274;28;20026;-68
2023/05/12 13:27:48;;;;;;;2.38;1.10;;;;;;;;;;10348055;28;20438;-73
2023/05/12 13:32:49;;;;;;;6.28;1.50;;;;;;;;;;10346779;28;20026;-67
2023/05/12 13:37:50;;;;;;;1.67;1.10;;;;;;;;;;10349484;28;20022;-72
2023/05/12 13:42:50;;;;;;;5.40;1.35;;;;;;;;;;10351401;28;20030;-68
2023/05/12 13:47:51;;;;;;;4.93;1.58;;;;;;;;;;10351107;28;20058;-71
2023/05/12 13:52:51;;;;;;;5.15;1.45;;;;;;;;;;10358585;28;20030;-68
2023/05/12 13:57:52;;;;;;;7.75;1.30;;;;;;;;;;10345831;28;20026;-64
2023/05/12 14:02:52;;;;;;;4.85;1.50;;;;;;;;;;10319161;28;20179;-70
2023/05/12 14:07:53;;;;;;;8.25;2.55;;;;;;;;;;10330955;28;20030;-69
2023/05/12 14:12:54;;;;;;;2.95;1.50;;;;;;;;;;10364504;28;21235;-74
2023/05/12 14:17:54;;;;;;;7.65;1.38;;;;;;;;;;10342476;28;20034;-55
2023/05/12 14:22:55;;;;;;;4.32;1.27;;;;;;;;;;10320985;28;20080;-65
2023/05/12 14:27:56;;;;;;;7.35;1.80;;;;;;;;;;10323013;28;20034;-68
2023/05/12 14:32:56;;;;;;;6.00;1.50;;;;;;;;;;10325064;28;20018;-61
2023/05/12 14:37:57;;;;;;;2.33;1.10;;;;;;;;;;10324155;28;20031;-60
2023/05/12 14:42:57;;;;;;;8.23;1.48;;;;;;;;;;10317280;28;20038;-69
2023/05/12 14:47:58;;;;;;;4.78;1.48;;;;;;;;;;10323025;28;20050;-67
2023/05/12 14:52:59;;;;;;;2.95;1.23;;;;;;;;;;10322666;28;20049;-48
2023/05/12 14:57:59;;;;;;;5.90;1.67;;;;;;;;;;10323184;28;20109;-52
2023/05/12 15:03:01;;;;;;;8.88;1.63;;;;;;;;;;10317892;28;20038;-52
2023/05/12 15:08:02;;;;;;;5.57;1.42;;;;;;;;;;10317964;28;20496;-49
2023/05/12 15:13:02;;;;;;;6.43;1.40;;;;;;;;;;10316842;28;20282;-51
2023/05/12 15:18:03;;;;;;;4.93;1.63;;;;;;;;;;10323975;28;20034;-51
2023/05/12 15:23:04;;;;;;;4.85;1.23;;;;;;;;;;10324080;28;20077;-49
2023/05/12 15:28:04;;;;;;;2.05;1.30;;;;;;;;;;10323280;28;20393;-52
2023/05/12 15:33:05;;;;;;;4.47;1.42;;;;;;;;;;10324046;28;20490;-48
2023/05/12 15:38:06;;;;;;;3.97;1.40;;;;;;;;;;10317133;28;20038;-49
2023/05/12 15:43:07;;;;;;;3.90;1.00;;;;;;;;;;10352515;28;20037;-53
2023/05/12 15:48:07;;;;;;;1.48;1.20;;;;;;;;;;10327063;28;20184;-49
2023/05/12 15:53:08;;;;;;;3.20;1.40;;;;;;;;;;10352387;28;20641;-52
2023/05/12 15:58:09;;;;;;;3.42;1.25;;;;;;;;;;10347580;28;20026;-47
2023/05/12 16:03:09;;;;;;;1.30;1.20;;;;;;;;;;10340456;28;20116;-56
2023/05/12 16:08:10;;;;;;;2.30;1.30;;;;;;;;;;10336715;28;20038;-56
2023/05/12 16:13:10;;;;;;;2.33;1.10;;;;;;;;;;10312211;28;20421;-56
2023/05/12 16:18:11;;;;;;;5.32;1.50;;;;;;;;;;10334004;28;20053;-57
2023/05/12 16:23:12;;;;;;;4.18;1.27;;;;;;;;;;10347178;28;20026;-55
2023/05/12 16:28:13;;;;;;;9.57;1.65;;;;;;;;;;10345793;28;20124;-56
2023/05/12 16:33:13;;;;;;;2.72;1.52;;;;;;;;;;10332623;28;20034;-55
2023/05/12 16:38:14;;;;;;;4.30;1.30;;;;;;;;;;10349647;28;20462;-54
2023/05/12 16:43:15;;;;;;;1.77;1.33;;;;;;;;;;10340514;28;20465;-55
2023/05/12 16:48:15;;;;;;;3.03;1.55;;;;;;;;;;10358686;28;20405;-53
2023/05/12 16:53:16;;;;;;;3.38;1.40;;;;;;;;;;10345415;28;20144;-53
2023/05/12 16:58:16;;;;;;;1.73;1.30;;;;;;;;;;10351632;28;20030;-55
2023/05/12 17:03:17;;;;;;;1.83;0.93;;;;;;;;;;10364563;28;20021;-55
2023/05/12 17:08:18;;;;;;;1.33;1.20;;;;;;;;;;10326050;28;20034;-54
2023/05/12 17:13:20;;;;;;;1.67;1.23;;;;;;;;;;10321278;28;20026;-54
2023/05/12 17:18:20;;;;;;;2.17;1.30;;;;;;;;;;10345478;28;20030;-54
2023/05/12 17:23:21;;;;;;;3.55;1.40;;;;;;;;;;10338568;28;20037;-48
2023/05/12 17:28:21;;;;;;;2.28;1.20;;;;;;;;;;10339545;28;20057;-51
2023/05/12 17:33:22;;;;;;;5.38;1.40;;;;;;;;;;10336779;28;20147;-49
2023/05/12 17:38:23;;;;;;;1.70;1.00;;;;;;;;;;10328956;28;20053;-55
2023/05/12 17:43:24;;;;;;;2.17;1.40;;;;;;;;;;10323495;28;20034;-51
2023/05/12 17:48:25;;;;;;;2.63;1.23;;;;;;;;;;10337283;28;20045;-52
2023/05/12 17:53:25;;;;;;;2.20;1.13;;;;;;;;;;10341099;28;20026;-53
2023/05/12 17:58:27;;;;;;;3.55;1.23;;;;;;;;;;10327246;28;20043;-50
2023/05/12 18:03:28;;;;;;;2.92;1.08;;;;;;;;;;10345456;28;20027;-52
2023/05/12 18:08:28;;;;;;;7.70;1.30;;;;;;;;;;10346415;28;20030;-52
2023/05/12 18:13:29;;;;;;;5.10;1.38;;;;;;;;;;10329653;28;20026;-53
2023/05/12 18:18:31;;;;;;;2.30;1.17;;;;;;;;;;10342421;28;20092;-50
2023/05/12 18:23:31;;;;;;;1.27;1.10;;;;;;;;;;10341107;28;20200;-50
2023/05/12 18:28:32;;;;;;;9.00;1.20;;;;;;;;;;10345155;28;20034;-52
2023/05/12 18:33:34;;;;;;;3.08;1.10;;;;;;;;;;10336693;28;20061;-51
2023/05/12 18:38:35;;;;;;;2.22;1.35;;;;;;;;;;10344477;28;20605;-49
2023/05/12 18:43:35;;;;;;;1.67;1.25;;;;;;;;;;10354259;28;20071;-53
2023/05/12 18:48:36;;;;;;;1.80;1.00;;;;;;;;;;10351652;28;20064;-50
2023/05/12 18:53:36;;;;;;;4.15;1.17;;;;;;;;;;10330891;28;20452;-51
2023/05/12 18:58:38;;;;;;;1.20;1.10;;;;;;;;;;10342006;28;20029;-50
2023/05/12 19:03:39;;;;;;;2.17;1.42;;;;;;;;;;10335564;28;20463;-51
2023/05/12 19:08:39;;;;;;;6.53;1.65;;;;;;;;;;10334102;28;20042;-51
2023/05/12 19:13:43;;;;;;;3.92;1.20;;;;;;;;;;10328159;28;20022;-52
2023/05/12 19:18:44;;;;;;;3.33;1.48;;;;;;;;;;10332654;28;20667;-52
2023/05/12 19:23:45;;;;;;;1.40;1.10;;;;;;;;;;10351703;28;20238;-52
2023/05/12 19:28:45;;;;;;;3.25;1.55;;;;;;;;;;10344960;28;20038;-50
2023/05/12 19:33:46;;;;;;;4.38;1.20;;;;;;;;;;10334984;28;20417;-51
2023/05/12 19:38:47;;;;;;;1.60;1.13;;;;;;;;;;10361402;28;20377;-49
2023/05/12 19:43:48;;;;;;;2.70;1.48;;;;;;;;;;10345997;23;20113;-57
2023/05/12 19:48:50;;;;;;;3.47;1.40;;;;;;;;;;10292564;28;20402;-59
2023/05/12 19:53:51;;;;;;;4.78;1.52;;;;;;;;;;10298247;28;20386;-58
2023/05/12 19:58:51;;;;;;;2.78;1.30;;;;;;;;;;10323547;28;20046;-58
2023/05/12 20:03:52;;;;;;;7.70;1.73;;;;;;;;;;10333138;28;20034;-58
2023/05/12 20:08:52;;;;;;;6.70;1.60;;;;;;;;;;10315120;28;20054;-58
2023/05/12 20:13:53;;;;;;;2.90;1.20;;;;;;;;;;10331215;28;20082;-58
2023/05/12 20:18:54;;;;;;;3.03;1.48;;;;;;;;;;10329309;28;20022;-57
2023/05/12 20:23:54;;;;;;;4.55;1.50;;;;;;;;;;10315579;28;20027;-58
2023/05/12 20:28:55;;;;;;;5.38;1.27;;;;;;;;;;10317574;28;20026;-55
2023/05/12 20:33:56;;;;;;;6.65;1.85;;;;;;;;;;10317379;28;20035;-58
2023/05/12 20:38:57;;;;;;;4.60;1.30;;;;;;;;;;10317313;28;20512;-57
2023/05/12 20:43:57;;;;;;;3.85;1.50;;;;;;;;;;10320893;28;20437;-47
2023/05/12 20:48:58;;;;;;;2.13;1.20;;;;;;;;;;10329818;28;20050;-52
2023/05/12 20:53:59;;;;;;;5.20;1.42;;;;;;;;;;10316259;28;20038;-57
2023/05/12 20:58:59;;;;;;;1.48;1.20;;;;;;;;;;10326083;28;20026;-58
2023/05/12 21:04:00;;;;;;;2.35;1.25;;;;;;;;;;10317552;28;20034;-59
2023/05/12 21:09:03;;;;;;;3.50;1.40;;;;;;;;;;10324706;28;20050;-59
2023/05/12 21:14:04;;;;;;;2.97;1.25;;;;;;;;;;10314663;28;20027;-58
2023/05/12 21:19:05;;;;;;;1.77;1.20;;;;;;;;;;10321092;28;20034;-59
2023/05/12 21:24:06;;;;;;;1.70;1.30;;;;;;;;;;10332145;28;20074;-60
2023/05/12 21:29:06;;;;;;;1.52;1.13;;;;;;;;;;10322107;28;20121;-59
2023/05/12 21:34:07;;;;;;;1.30;1.02;;;;;;;;;;10306395;28;20031;-59
2023/05/12 21:39:08;;;;;;;2.25;1.30;;;;;;;;;;10318523;28;20026;-59
2023/05/12 21:44:09;;;;;;;6.88;1.50;;;;;;;;;;10313138;28;20050;-59
2023/05/12 21:49:10;;;;;;;3.30;1.40;;;;;;;;;;10327791;28;20072;-59
2023/05/12 21:54:11;;;;;;;3.08;1.60;;;;;;;;;;10297987;28;20482;-59
2023/05/12 21:59:11;;;;;;;2.22;1.40;;;;;;;;;;10326028;28;20493;-59
2023/05/12 22:04:12;;;;;;;1.00;0.95;;;;;;;;;;10329305;28;20034;-59
2023/05/12 22:09:13;;;;;;;3.97;1.60;;;;;;;;;;10314493;28;20029;-59
2023/05/12 22:14:13;;;;;;;1.67;1.38;;;;;;;;;;10309184;28;20027;-59
2023/05/12 22:19:15;;;;;;;4.72;1.50;;;;;;;;;;10303011;28;20030;-59
2023/05/12 22:24:16;;;;;;;3.22;2.17;;;;;;;;;;10324726;28;20026;-59
2023/05/12 22:29:17;;;;;;;1.55;1.15;;;;;;;;;;10327742;28;20081;-60
2023/05/12 22:34:17;;;;;;;3.70;1.42;;;;;;;;;;10324797;28;20092;-59
2023/05/12 22:39:18;;;;;;;4.18;1.20;;;;;;;;;;10326691;28;20084;-59
2023/05/12 22:44:19;;;;;;;2.45;1.23;;;;;;;;;;10321818;28;20050;-59
2023/05/12 22:49:19;;;;;;;1.33;1.23;;;;;;;;;;10327071;28;20026;-59
2023/05/12 22:54:20;;;;;;;1.45;1.35;;;;;;;;;;10308249;28;20041;-58
2023/05/12 22:59:20;;;;;;;3.53;1.42;;;;;;;;;;10306220;28;20058;-59
2023/05/12 23:04:21;;;;;;;6.72;1.77;;;;;;;;;;10326312;28;20030;-59
2023/05/12 23:09:22;;;;;;;3.05;1.60;;;;;;;;;;10314831;28;20038;-59
2023/05/12 23:14:22;;;;;;;1.05;0.95;;;;;;;;;;10318791;28;20061;-59
2023/05/12 23:19:23;;;;;;;1.40;1.30;;;;;;;;;;10325130;28;20034;-59
2023/05/12 23:24:23;;;;;;;2.53;1.27;;;;;;;;;;10324928;28;20141;-59
2023/05/12 23:29:24;;;;;;;1.10;1.10;;;;;;;;;;10313728;28;20030;-60
2023/05/12 23:34:25;;;;;;;3.17;1.20;;;;;;;;;;10321747;28;20053;-59
2023/05/12 23:39:25;;;;;;;1.63;1.30;;;;;;;;;;10324937;28;20037;-58
2023/05/12 23:44:26;;;;;;;1.30;1.10;;;;;;;;;;10312258;28;20045;-59
2023/05/12 23:49:27;;;;;;;1.00;1.00;;;;;;;;;;10323114;28;20382;-58
2023/05/12 23:54:28;;;;;;;1.38;1.27;;;;;;;;;;10303027;28;20030;-59
2023/05/12 23:59:29;;;;;;;1.45;1.20;;;;;;;;;;10313122;28;20042;-59
